sensor_id;sensor_type;location;lat;lon;timestamp;pressure;altitude;pressure_sealevel;temperature;humidity
48386;BME280;34644;47.964;7.982;2023-02-23T00:06:39;96287.81;;;16.19;59.05
48386;BME280;34644;47.964;7.982;2023-02-23T00:13:40;96291.53;;;16.18;59.05
48386;BME280;34644;47.964;7.982;2023-02-23T00:20:40;96291.53;;;16.18;58.91
48386;BME280;34644;47.964;7.982;2023-02-23T00:27:45;96290.75;;;16.18;58.92
48386;BME280;34644;47.964;7.982;2023-02-23T00:34:45;96286.19;;;16.18;58.98
48386;BME280;34644;47.964;7.982;2023-02-23T00:41:48;96288.88;;;16.18;58.99
48386;BME280;34644;47.964;7.982;2023-02-23T00:48:49;96289.66;;;16.19;58.95
48386;BME280;34644;47.964;7.982;2023-02-23T00:55:50;96283.81;;;16.17;59.08
48386;BME280;34644;47.964;7.982;2023-02-23T01:02:50;96287.25;;;16.17;59.10
48386;BME280;34644;47.964;7.982;2023-02-23T01:09:51;96278.50;;;16.17;59.04
48386;BME280;34644;47.964;7.982;2023-02-23T01:16:51;96282.75;;;16.18;59.18
48386;BME280;34644;47.964;7.982;2023-02-23T01:23:51;96276.63;;;16.17;59.26
48386;BME280;34644;47.964;7.982;2023-02-23T01:30:52;96267.88;;;16.17;59.39
48386;BME280;34644;47.964;7.982;2023-02-23T01:37:52;96267.09;;;16.16;59.43
48386;BME280;34644;47.964;7.982;2023-02-23T01:58:55;96264.69;;;16.15;59.43
48386;BME280;34644;47.964;7.982;2023-02-23T02:05:57;96257.50;;;16.15;59.53
48386;BME280;34644;47.964;7.982;2023-02-23T02:13:00;96256.72;;;16.15;59.55
48386;BME280;34644;47.964;7.982;2023-02-23T02:20:26;96259.38;;;16.15;59.70
48386;BME280;34644;47.964;7.982;2023-02-23T02:41:35;96236.53;;;16.14;59.85
48386;BME280;34644;47.964;7.982;2023-02-23T02:48:47;96233.06;;;16.13;60.02
48386;BME280;34644;47.964;7.982;2023-02-23T02:55:49;96230.69;;;16.12;59.99
48386;BME280;34644;47.964;7.982;2023-02-23T03:02:50;96225.66;;;16.10;60.43
48386;BME280;34644;47.964;7.982;2023-02-23T03:17:47;96221.91;;;16.11;60.24
48386;BME280;34644;47.964;7.982;2023-02-23T03:25:08;96221.41;;;16.09;60.15
48386;BME280;34644;47.964;7.982;2023-02-23T03:32:51;96223.78;;;16.10;60.20
48386;BME280;34644;47.964;7.982;2023-02-23T03:40:15;96225.66;;;16.10;60.16
48386;BME280;34644;47.964;7.982;2023-02-23T03:47:36;96225.66;;;16.10;60.23
48386;BME280;34644;47.964;7.982;2023-02-23T03:54:58;96222.19;;;16.09;60.26
48386;BME280;34644;47.964;7.982;2023-02-23T04:02:18;96224.06;;;16.09;60.46
48386;BME280;34644;47.964;7.982;2023-02-23T04:09:38;96214.50;;;16.08;60.29
48386;BME280;34644;47.964;7.982;2023-02-23T04:16:57;96214.50;;;16.08;60.45
48386;BME280;34644;47.964;7.982;2023-02-23T04:23:57;96216.38;;;16.07;60.49
48386;BME280;34644;47.964;7.982;2023-02-23T04:30:58;96216.38;;;16.07;60.59
48386;BME280;34644;47.964;7.982;2023-02-23T04:37:59;96220.91;;;16.07;60.49
48386;BME280;34644;47.964;7.982;2023-02-23T04:45:00;96206.78;;;16.06;60.58
48386;BME280;34644;47.964;7.982;2023-02-23T04:52:00;96221.50;;;15.94;59.42
48386;BME280;34644;47.964;7.982;2023-02-23T04:59:00;96221.03;;;15.86;58.72
48386;BME280;34644;47.964;7.982;2023-02-23T05:06:01;96216.84;;;15.80;58.07
48386;BME280;34644;47.964;7.982;2023-02-23T05:13:01;96209.41;;;15.72;57.71
48386;BME280;34644;47.964;7.982;2023-02-23T05:20:02;96211.03;;;15.68;57.11
48386;BME280;34644;47.964;7.982;2023-02-23T05:27:02;96213.72;;;15.63;57.18
48386;BME280;34644;47.964;7.982;2023-02-23T05:34:02;96210.28;;;15.57;56.97
48386;BME280;34644;47.964;7.982;2023-02-23T05:41:03;96215.09;;;15.55;56.61
48386;BME280;34644;47.964;7.982;2023-02-23T05:48:04;96219.34;;;15.51;56.36
48386;BME280;34644;47.964;7.982;2023-02-23T05:55:04;96215.94;;;15.45;55.86
48386;BME280;34644;47.964;7.982;2023-02-23T06:02:05;96215.69;;;15.42;55.85
48386;BME280;34644;47.964;7.982;2023-02-23T06:09:05;96215.44;;;15.38;55.92
48386;BME280;34644;47.964;7.982;2023-02-23T06:16:05;96226.03;;;15.48;56.04
48386;BME280;34644;47.964;7.982;2023-02-23T06:23:07;96226.50;;;15.55;56.94
48386;BME280;34644;47.964;7.982;2023-02-23T06:30:07;96230.22;;;15.60;57.12
48386;BME280;34644;47.964;7.982;2023-02-23T06:37:08;96228.06;;;15.62;57.27
48386;BME280;34644;47.964;7.982;2023-02-23T06:44:08;96241.84;;;15.64;57.61
48386;BME280;34644;47.964;7.982;2023-02-23T06:51:09;96239.97;;;15.69;57.58
48386;BME280;34644;47.964;7.982;2023-02-23T06:58:09;96247.16;;;15.69;57.99
48386;BME280;34644;47.964;7.982;2023-02-23T07:05:09;96262.81;;;15.70;58.09
48386;BME280;34644;47.964;7.982;2023-02-23T07:12:10;96266.81;;;15.78;57.83
48386;BME280;34644;47.964;7.982;2023-02-23T07:19:10;96268.97;;;16.10;57.32
48386;BME280;34644;47.964;7.982;2023-02-23T07:26:10;96272.69;;;16.44;57.14
48386;BME280;34644;47.964;7.982;2023-02-23T07:33:15;96272.63;;;16.54;56.63
48386;BME280;34644;47.964;7.982;2023-02-23T07:40:16;96274.75;;;16.52;57.03
48386;BME280;34644;47.964;7.982;2023-02-23T07:47:16;96276.13;;;16.50;56.88
48386;BME280;34644;47.964;7.982;2023-02-23T07:54:16;96272.00;;;16.33;57.65
48386;BME280;34644;47.964;7.982;2023-02-23T08:01:17;96278.19;;;16.23;57.41
48386;BME280;34644;47.964;7.982;2023-02-23T08:08:17;96268.91;;;16.21;57.32
48386;BME280;34644;47.964;7.982;2023-02-23T08:15:18;96273.41;;;16.20;57.38
48386;BME280;34644;47.964;7.982;2023-02-23T08:22:18;96286.44;;;16.22;57.64
48386;BME280;34644;47.964;7.982;2023-02-23T08:29:18;96282.94;;;16.26;57.94
48386;BME280;34644;47.964;7.982;2023-02-23T08:36:19;96283.78;;;16.22;57.50
48386;BME280;34644;47.964;7.982;2023-02-23T08:43:20;96280.88;;;16.18;57.81
48386;BME280;34644;47.964;7.982;2023-02-23T08:50:20;96283.81;;;16.17;58.00
48386;BME280;34644;47.964;7.982;2023-02-23T08:57:20;96289.91;;;16.17;57.84
48386;BME280;34644;47.964;7.982;2023-02-23T09:04:21;96280.88;;;16.18;57.96
48386;BME280;34644;47.964;7.982;2023-02-23T09:11:21;96287.53;;;16.21;58.02
48386;BME280;34644;47.964;7.982;2023-02-23T09:18:22;96286.16;;;16.23;57.94
48386;BME280;34644;47.964;7.982;2023-02-23T09:25:23;96294.09;;;16.28;57.79
48386;BME280;34644;47.964;7.982;2023-02-23T09:32:23;96289.22;;;16.41;58.44
48386;BME280;34644;47.964;7.982;2023-02-23T09:39:24;96287.66;;;16.40;57.88
48386;BME280;34644;47.964;7.982;2023-02-23T09:53:32;96280.91;;;16.48;58.84
48386;BME280;34644;47.964;7.982;2023-02-23T10:00:36;96280.69;;;16.73;59.02
48386;BME280;34644;47.964;7.982;2023-02-23T10:08:01;96277.94;;;16.83;59.52
48386;BME280;34644;47.964;7.982;2023-02-23T10:22:06;96274.69;;;16.92;59.63
48386;BME280;34644;47.964;7.982;2023-02-23T10:29:14;96271.28;;;16.86;60.32
48386;BME280;34644;47.964;7.982;2023-02-23T10:36:22;96268.69;;;16.76;60.99
48386;BME280;34644;47.964;7.982;2023-02-23T10:43:27;96264.47;;;16.70;61.77
48386;BME280;34644;47.964;7.982;2023-02-23T10:50:27;96264.34;;;16.85;61.98
48386;BME280;34644;47.964;7.982;2023-02-23T10:57:28;96258.34;;;17.04;60.95
48386;BME280;34644;47.964;7.982;2023-02-23T11:04:30;96258.72;;;17.16;60.80
48386;BME280;34644;47.964;7.982;2023-02-23T11:11:30;96252.22;;;17.27;60.71
48386;BME280;34644;47.964;7.982;2023-02-23T11:18:31;96256.97;;;17.30;61.03
48386;BME280;34644;47.964;7.982;2023-02-23T11:25:31;96251.63;;;17.30;60.95
48386;BME280;34644;47.964;7.982;2023-02-23T11:32:32;96249.56;;;17.46;60.77
48386;BME280;34644;47.964;7.982;2023-02-23T11:39:37;96246.88;;;17.27;61.38
48386;BME280;34644;47.964;7.982;2023-02-23T11:46:49;96231.06;;;17.12;62.28
48386;BME280;34644;47.964;7.982;2023-02-23T11:53:50;96237.03;;;17.04;62.64
48386;BME280;34644;47.964;7.982;2023-02-23T12:00:54;96237.31;;;17.02;63.12
48386;BME280;34644;47.964;7.982;2023-02-23T12:15:16;96233.63;;;16.98;63.54
48386;BME280;34644;47.964;7.982;2023-02-23T12:22:23;96233.41;;;16.94;64.34
48386;BME280;34644;47.964;7.982;2023-02-23T12:29:29;96226.56;;;16.88;65.17
48386;BME280;34644;47.964;7.982;2023-02-23T12:43:52;96217.53;;;16.84;65.80
48386;BME280;34644;47.964;7.982;2023-02-23T12:50:55;96220.75;;;16.81;66.34
48386;BME280;34644;47.964;7.982;2023-02-23T12:58:02;96215.19;;;16.77;66.39
48386;BME280;34644;47.964;7.982;2023-02-23T13:20:07;96213.38;;;16.73;67.11
48386;BME280;34644;47.964;7.982;2023-02-23T13:33:45;96203.19;;;16.80;70.06
48386;BME280;34644;47.964;7.982;2023-02-23T13:40:47;96198.44;;;16.77;70.20
48386;BME280;34644;47.964;7.982;2023-02-23T13:47:55;96200.59;;;16.75;69.40
48386;BME280;34644;47.964;7.982;2023-02-23T13:54:58;96197.41;;;16.73;70.00
48386;BME280;34644;47.964;7.982;2023-02-23T14:02:05;96197.69;;;16.71;70.63
48386;BME280;34644;47.964;7.982;2023-02-23T14:09:23;96196.63;;;16.72;70.65
48386;BME280;34644;47.964;7.982;2023-02-23T14:16:25;96196.13;;;16.70;70.76
48386;BME280;34644;47.964;7.982;2023-02-23T14:23:32;96193.97;;;16.72;70.49
48386;BME280;34644;47.964;7.982;2023-02-23T14:30:43;96195.31;;;16.70;70.96
48386;BME280;34644;47.964;7.982;2023-02-23T14:37:58;96189.19;;;16.69;71.44
48386;BME280;34644;47.964;7.982;2023-02-23T14:45:02;96189.41;;;16.73;71.17
48386;BME280;34644;47.964;7.982;2023-02-23T14:52:07;96186.16;;;16.81;70.08
48386;BME280;34644;47.964;7.982;2023-02-23T14:59:12;96181.13;;;16.79;69.88
48386;BME280;34644;47.964;7.982;2023-02-23T15:06:16;96185.03;;;16.87;71.64
48386;BME280;34644;47.964;7.982;2023-02-23T15:13:25;96190.09;;;16.83;71.75
48386;BME280;34644;47.964;7.982;2023-02-23T15:20:28;96184.78;;;16.83;71.62
48386;BME280;34644;47.964;7.982;2023-02-23T15:27:41;96191.97;;;16.83;72.01
48386;BME280;34644;47.964;7.982;2023-02-23T15:34:43;96185.59;;;16.84;71.69
48386;BME280;34644;47.964;7.982;2023-02-23T15:41:44;96186.13;;;16.86;72.47
48386;BME280;34644;47.964;7.982;2023-02-23T15:48:47;96179.19;;;16.85;72.82
48386;BME280;34644;47.964;7.982;2023-02-23T15:55:48;96186.16;;;16.81;71.89
48386;BME280;34644;47.964;7.982;2023-02-23T16:02:49;96174.97;;;16.79;72.71
48386;BME280;34644;47.964;7.982;2023-02-23T16:09:51;96164.91;;;16.76;72.92
48386;BME280;34644;47.964;7.982;2023-02-23T16:16:51;96172.38;;;16.74;72.65
48386;BME280;34644;47.964;7.982;2023-02-23T16:23:52;96167.13;;;16.69;69.04
48386;BME280;34644;47.964;7.982;2023-02-23T16:30:58;96179.47;;;16.59;70.23
48386;BME280;34644;47.964;7.982;2023-02-23T16:38:02;96177.19;;;16.48;69.47
48386;BME280;34644;47.964;7.982;2023-02-23T16:45:03;96176.72;;;16.40;69.01
48386;BME280;34644;47.964;7.982;2023-02-23T16:52:08;96185.31;;;16.32;68.46
48386;BME280;34644;47.964;7.982;2023-02-23T16:59:13;96198.41;;;16.23;68.23
48386;BME280;34644;47.964;7.982;2023-02-23T17:06:14;96190.25;;;16.15;67.86
48386;BME280;34644;47.964;7.982;2023-02-23T17:13:19;96207.31;;;16.08;67.64
48386;BME280;34644;47.964;7.982;2023-02-23T17:20:19;96203.41;;;16.01;67.46
48386;BME280;34644;47.964;7.982;2023-02-23T17:27:20;96221.50;;;15.94;67.09
48386;BME280;34644;47.964;7.982;2023-02-23T17:34:20;96225.81;;;15.89;66.87
48386;BME280;34644;47.964;7.982;2023-02-23T17:41:20;96219.44;;;15.85;66.78
48386;BME280;34644;47.964;7.982;2023-02-23T17:48:22;96219.75;;;15.79;66.90
48386;BME280;34644;47.964;7.982;2023-02-23T17:55:22;96234.66;;;15.69;66.52
48386;BME280;34644;47.964;7.982;2023-02-23T18:02:23;96240.78;;;15.65;66.39
48386;BME280;34644;47.964;7.982;2023-02-23T18:09:24;96253.59;;;15.58;66.18
48386;BME280;34644;47.964;7.982;2023-02-23T18:16:24;96261.31;;;15.54;66.04
48386;BME280;34644;47.964;7.982;2023-02-23T18:23:25;96263.75;;;15.45;65.77
48386;BME280;34644;47.964;7.982;2023-02-23T18:30:27;96266.13;;;15.47;65.51
48386;BME280;34644;47.964;7.982;2023-02-23T18:37:28;96275.47;;;15.39;65.57
48386;BME280;34644;47.964;7.982;2023-02-23T18:44:30;96278.66;;;15.36;65.41
48386;BME280;34644;47.964;7.982;2023-02-23T18:51:30;96277.88;;;15.30;65.08
48386;BME280;34644;47.964;7.982;2023-02-23T18:58:32;96272.56;;;15.35;64.99
48386;BME280;34644;47.964;7.982;2023-02-23T19:05:32;96265.13;;;15.32;65.31
48386;BME280;34644;47.964;7.982;2023-02-23T19:12:35;96269.38;;;15.28;65.20
48386;BME280;34644;47.964;7.982;2023-02-23T19:19:35;96260.13;;;15.20;65.32
48386;BME280;34644;47.964;7.982;2023-02-23T19:26:35;96259.59;;;15.18;64.81
48386;BME280;34644;47.964;7.982;2023-02-23T19:33:37;96262.28;;;15.13;64.66
48386;BME280;34644;47.964;7.982;2023-02-23T19:40:37;96254.88;;;15.10;64.55
48386;BME280;34644;47.964;7.982;2023-02-23T19:47:41;96264.66;;;15.10;64.20
48386;BME280;34644;47.964;7.982;2023-02-23T19:54:41;96253.53;;;15.08;64.00
48386;BME280;34644;47.964;7.982;2023-02-23T20:01:43;96263.09;;;15.04;63.87
48386;BME280;34644;47.964;7.982;2023-02-23T20:08:44;96258.59;;;15.04;63.89
48386;BME280;34644;47.964;7.982;2023-02-23T20:15:47;96251.34;;;15.25;64.34
48386;BME280;34644;47.964;7.982;2023-02-23T20:22:50;96253.38;;;15.49;65.36
48386;BME280;34644;47.964;7.982;2023-02-23T20:29:50;96257.56;;;16.10;65.07
48386;BME280;34644;47.964;7.982;2023-02-23T20:36:52;96247.38;;;16.52;64.44
48386;BME280;34644;47.964;7.982;2023-02-23T20:43:54;96258.66;;;16.68;64.60
48386;BME280;34644;47.964;7.982;2023-02-23T20:50:55;96256.00;;;16.68;65.27
48386;BME280;34644;47.964;7.982;2023-02-23T20:57:56;96258.72;;;16.62;67.53
48386;BME280;34644;47.964;7.982;2023-02-23T21:04:59;96254.69;;;16.94;66.60
48386;BME280;34644;47.964;7.982;2023-02-23T21:11:59;96258.13;;;17.00;66.46
48386;BME280;34644;47.964;7.982;2023-02-23T21:18:59;96256.53;;;16.99;66.78
48386;BME280;34644;47.964;7.982;2023-02-23T21:26:03;96251.94;;;17.05;66.81
48386;BME280;34644;47.964;7.982;2023-02-23T21:33:06;96247.00;;;16.93;67.70
48386;BME280;34644;47.964;7.982;2023-02-23T21:40:07;96247.84;;;16.59;68.29
48386;BME280;34644;47.964;7.982;2023-02-23T21:47:09;96241.78;;;16.53;67.96
48386;BME280;34644;47.964;7.982;2023-02-23T21:54:09;96237.13;;;16.35;66.65
48386;BME280;34644;47.964;7.982;2023-02-23T22:01:11;96219.13;;;16.26;66.99
48386;BME280;34644;47.964;7.982;2023-02-23T22:08:11;96223.13;;;16.24;66.98
48386;BME280;34644;47.964;7.982;2023-02-23T22:15:14;96212.78;;;16.22;67.97
48386;BME280;34644;47.964;7.982;2023-02-23T22:22:15;96205.38;;;16.19;68.68
48386;BME280;34644;47.964;7.982;2023-02-23T22:29:22;96195.03;;;16.18;68.90
48386;BME280;34644;47.964;7.982;2023-02-23T22:36:23;96194.22;;;16.17;69.46
48386;BME280;34644;47.964;7.982;2023-02-23T22:43:23;96187.06;;;16.18;69.63
48386;BME280;34644;47.964;7.982;2023-02-23T22:50:26;96181.19;;;16.16;69.79
48386;BME280;34644;47.964;7.982;2023-02-23T22:57:26;96173.50;;;16.14;69.95
48386;BME280;34644;47.964;7.982;2023-02-23T23:04:26;96177.25;;;16.13;70.33
48386;BME280;34644;47.964;7.982;2023-02-23T23:11:26;96177.81;;;16.10;70.39
48386;BME280;34644;47.964;7.982;2023-02-23T23:18:28;96172.78;;;16.08;70.35
48386;BME280;34644;47.964;7.982;2023-02-23T23:25:33;96174.63;;;16.08;69.92
48386;BME280;34644;47.964;7.982;2023-02-23T23:32:38;96168.50;;;16.07;69.94
48386;BME280;34644;47.964;7.982;2023-02-23T23:39:39;96165.84;;;16.07;69.73
48386;BME280;34644;47.964;7.982;2023-02-23T23:46:40;96162.69;;;16.05;69.61
48386;BME280;34644;47.964;7.982;2023-02-23T23:53:43;96153.91;;;16.05;69.57
